createdAt,value
2019-04-29T00:00:54.821Z,75.52
2019-04-29T00:03:27.641Z,74.78
2019-04-29T00:05:58.511Z,74.59
2019-04-29T00:08:30.214Z,75.21
2019-04-29T00:11:01.965Z,74.74
2019-04-29T00:13:32.729Z,75.19
2019-04-29T00:16:19.843Z,75.09
2019-04-29T00:18:52.121Z,75.55
2019-04-29T00:21:24.276Z,75.74
2019-04-29T00:24:03.554Z,74.00
2019-04-29T00:26:28.365Z,75.00
2019-04-29T00:29:09.732Z,74.86
2019-04-29T00:31:41.369Z,74.85
2019-04-29T00:34:11.934Z,74.71
2019-04-29T00:36:51.370Z,75.09
2019-04-29T00:39:26.389Z,75.47
2019-04-29T00:42:06.731Z,75.18
2019-04-29T00:44:37.335Z,75.14
2019-04-29T00:47:07.809Z,74.91
2019-04-29T00:49:38.507Z,74.76
2019-04-29T00:52:10.193Z,74.32
2019-04-29T00:54:51.252Z,74.97
2019-04-29T00:57:21.910Z,74.25
2019-04-29T00:59:56.581Z,74.21
2019-04-29T01:02:27.293Z,74.46
2019-04-29T01:04:59.003Z,74.43
2019-04-29T01:07:45.061Z,74.21
2019-04-29T01:10:15.761Z,74.20
2019-04-29T01:12:46.356Z,74.57
2019-04-29T01:15:22.235Z,74.58
2019-04-29T01:17:52.796Z,74.48
2019-04-29T01:20:38.304Z,73.68
2019-04-29T01:23:09.025Z,74.26
2019-04-29T01:25:41.030Z,74.29
2019-04-29T01:28:13.381Z,74.45
2019-04-29T01:31:07.213Z,74.84
2019-04-29T01:33:59.306Z,75.31
2019-04-29T01:36:34.277Z,74.81
2019-04-29T01:39:17.075Z,75.35
2019-04-29T01:41:59.504Z,75.51
2019-04-29T01:44:57.513Z,75.56
2019-04-29T01:47:28.159Z,75.18
2019-04-29T01:49:58.892Z,75.10
2019-04-29T01:52:37.489Z,75.42
2019-04-29T01:55:08.435Z,74.80
2019-04-29T01:57:39.006Z,74.48
2019-04-29T02:00:20.684Z,74.62
2019-04-29T02:02:51.285Z,75.63
2019-04-29T02:05:22.112Z,75.41
2019-04-29T02:07:55.994Z,75.01
2019-04-29T02:10:29.863Z,74.78
2019-04-29T02:13:02.196Z,74.43
2019-04-29T02:15:39.457Z,74.60
2019-04-29T02:18:11.865Z,74.89
2019-04-29T02:20:44.259Z,74.85
2019-04-29T02:23:18.158Z,75.14
2019-04-29T02:25:51.202Z,74.88
2019-04-29T02:28:25.439Z,75.28
2019-04-29T02:30:59.432Z,75.12
2019-04-29T02:33:33.675Z,75.61
2019-04-29T02:36:05.880Z,75.57
2019-04-29T02:38:40.017Z,75.15
2019-04-29T02:41:16.935Z,75.14
2019-04-29T02:43:49.796Z,74.65
2019-04-29T02:46:22.170Z,75.46
2019-04-29T02:48:54.453Z,75.07
2019-04-29T02:51:44.580Z,75.36
2019-04-29T02:54:17.135Z,75.13
2019-04-29T02:56:51.016Z,75.39
2019-04-29T02:59:31.148Z,75.62
2019-04-29T03:02:16.125Z,74.78
2019-04-29T03:04:51.838Z,74.60
2019-04-29T03:07:23.707Z,75.47
2019-04-29T03:10:15.524Z,75.59
2019-04-29T03:12:46.672Z,75.25
2019-04-29T03:15:29.731Z,74.39
2019-04-29T03:18:01.677Z,75.24
2019-04-29T03:20:35.758Z,75.80
2019-04-29T03:23:17.786Z,74.32
2019-04-29T03:25:56.723Z,74.66
2019-04-29T03:28:27.522Z,75.81
2019-04-29T03:30:58.997Z,75.30
2019-04-29T03:33:42.915Z,75.10
2019-04-29T03:36:14.266Z,75.66
2019-04-29T03:38:45.786Z,75.08
2019-04-29T03:41:16.971Z,74.37
2019-04-29T03:43:49.222Z,74.92
2019-04-29T03:46:20.502Z,74.95
2019-04-29T03:48:56.617Z,73.98
2019-04-29T03:51:27.373Z,74.72
2019-04-29T03:54:00.113Z,74.13
2019-04-29T03:56:34.189Z,73.64
2019-04-29T03:59:04.997Z,74.70
2019-04-29T04:01:42.747Z,74.75
2019-04-29T04:04:15.443Z,74.41
2019-04-29T04:06:47.868Z,74.92
2019-04-29T04:09:28.046Z,74.80
2019-04-29T04:12:00.907Z,75.14
2019-04-29T04:14:33.964Z,75.13
2019-04-29T04:17:11.396Z,74.95
2019-04-29T04:19:42.247Z,75.40
2019-04-29T04:22:12.837Z,75.66
2019-04-29T04:24:45.454Z,75.44
2019-04-29T04:27:16.357Z,75.99
2019-04-29T04:29:47.218Z,75.31
2019-04-29T04:32:17.802Z,75.42
2019-04-29T04:34:48.702Z,75.63
2019-04-29T04:37:27.674Z,75.70
2019-04-29T04:40:06.105Z,75.59
2019-04-29T04:42:36.747Z,75.17
2019-04-29T04:45:15.607Z,75.32
2019-04-29T04:47:53.163Z,75.51
2019-04-29T04:50:28.327Z,76.05
2019-04-29T04:52:59.192Z,75.52
2019-04-29T04:55:35.412Z,75.84
2019-04-29T04:58:06.185Z,76.19
2019-04-29T05:00:37.965Z,75.78
2019-04-29T05:03:15.677Z,76.31
2019-04-29T05:05:50.149Z,75.92
2019-04-29T05:08:28.020Z,75.94
2019-04-29T05:10:58.670Z,75.67
2019-04-29T05:13:29.317Z,75.80
2019-04-29T05:15:59.957Z,76.16
2019-04-29T05:18:30.534Z,76.14
2019-04-29T05:21:01.177Z,76.43
2019-04-29T05:23:32.853Z,75.87
2019-04-29T05:26:04.576Z,75.86
2019-04-29T05:28:35.212Z,75.24
2019-04-29T05:31:18.687Z,75.69
2019-04-29T05:33:49.285Z,75.70
2019-04-29T05:36:39.235Z,75.71
2019-04-29T05:39:16.352Z,75.08
2019-04-29T05:41:46.986Z,74.90
2019-04-29T05:44:26.089Z,74.66
2019-04-29T05:47:01.014Z,74.84
2019-04-29T05:49:41.664Z,74.70
2019-04-29T05:52:20.090Z,74.54
2019-04-29T05:54:53.717Z,74.68
2019-04-29T05:57:25.240Z,74.20
2019-04-29T05:59:57.252Z,74.71
2019-04-29T06:02:36.364Z,73.99
2019-04-29T06:05:05.888Z,74.92
2019-04-29T06:07:36.637Z,74.78
2019-04-29T06:10:07.559Z,75.48
2019-04-29T06:12:38.177Z,75.35
2019-04-29T06:15:11.034Z,74.93
2019-04-29T06:17:44.748Z,74.99
2019-04-29T06:20:33.419Z,75.06
2019-04-29T06:23:05.071Z,75.04
2019-04-29T06:25:35.676Z,75.70
2019-04-29T06:28:11.285Z,75.34
2019-04-29T06:30:45.264Z,75.65
2019-04-29T06:33:14.241Z,75.24
2019-04-29T06:35:47.352Z,75.54
2019-04-29T06:38:17.371Z,75.56
2019-04-29T06:40:47.971Z,75.47
2019-04-29T06:43:30.700Z,76.14
2019-04-29T06:46:01.397Z,76.28
2019-04-29T06:48:32.089Z,75.44
2019-04-29T06:51:02.807Z,75.44
2019-04-29T06:53:33.522Z,75.18
2019-04-29T06:56:04.293Z,74.57
2019-04-29T06:58:36.697Z,74.68
2019-04-29T07:01:19.424Z,74.12
2019-04-29T07:03:50.079Z,73.50
2019-04-29T07:06:32.890Z,74.06
2019-04-29T07:09:06.115Z,73.74
2019-04-29T07:11:38.475Z,73.21
2019-04-29T07:14:12.933Z,71.06
2019-04-29T07:16:43.708Z,71.83
2019-04-29T07:19:18.370Z,72.10
2019-04-29T07:21:53.247Z,72.00
2019-04-29T07:24:22.009Z,72.18
2019-04-29T07:26:52.800Z,71.97
2019-04-29T07:29:29.637Z,71.41
2019-04-29T07:31:58.125Z,72.20
2019-04-29T07:34:33.820Z,71.56
2019-04-29T07:37:16.763Z,71.64
2019-04-29T07:39:47.840Z,71.02
2019-04-29T07:42:18.752Z,70.03
2019-04-29T07:45:07.349Z,71.04
2019-04-29T07:47:56.322Z,70.45
2019-04-29T07:50:22.405Z,69.68
2019-04-29T07:53:15.706Z,67.76
2019-04-29T07:55:49.646Z,69.12
2019-04-29T07:58:27.379Z,67.72
2019-04-29T08:01:00.144Z,67.60
2019-04-29T08:03:40.369Z,67.20
2019-04-29T08:06:18.420Z,68.38
2019-04-29T08:08:55.565Z,66.39
2019-04-29T08:11:22.421Z,66.01
2019-04-29T08:13:55.091Z,65.44
2019-04-29T08:16:32.727Z,62.23
2019-04-29T08:19:04.955Z,62.53
2019-04-29T08:21:36.037Z,62.78
2019-04-29T08:24:06.874Z,61.42
2019-04-29T08:26:41.428Z,62.11
2019-04-29T08:29:10.267Z,63.25
2019-04-29T08:31:44.020Z,60.99
2019-04-29T08:34:18.740Z,61.94
2019-04-29T08:36:48.310Z,61.60
2019-04-29T08:39:19.144Z,59.62
2019-04-29T08:41:50.110Z,59.67
2019-04-29T08:44:38.602Z,59.91
2019-04-29T08:47:16.777Z,59.37
2019-04-29T08:49:47.811Z,60.39
2019-04-29T08:52:18.631Z,60.11
2019-04-29T08:54:50.781Z,58.88
2019-04-29T08:57:36.476Z,58.22
2019-04-29T09:00:09.073Z,57.42
2019-04-29T09:02:41.352Z,58.64
2019-04-29T09:05:22.306Z,57.13
2019-04-29T09:07:57.364Z,55.05
2019-04-29T09:10:38.424Z,56.10
2019-04-29T09:13:09.344Z,56.08
2019-04-29T09:15:42.144Z,56.72
2019-04-29T09:18:13.973Z,55.75
2019-04-29T09:20:46.781Z,55.22
2019-04-29T09:23:19.631Z,54.93
2019-04-29T09:26:08.580Z,53.06
2019-04-29T09:28:39.403Z,52.18
2019-04-29T09:31:10.169Z,51.21
2019-04-29T09:33:44.106Z,50.28
2019-04-29T09:36:15.114Z,52.36
2019-04-29T09:38:45.987Z,51.58
2019-04-29T09:41:30.662Z,51.25
2019-04-29T09:44:07.378Z,51.49
2019-04-29T09:46:40.314Z,51.21
2019-04-29T09:49:11.264Z,51.08
2019-04-29T09:51:42.047Z,51.34
2019-04-29T09:54:14.525Z,53.55
2019-04-29T09:56:45.225Z,54.18
2019-04-29T09:59:23.590Z,54.55
2019-04-29T10:02:04.965Z,54.48
2019-04-29T10:04:38.363Z,53.07
2019-04-29T10:07:14.476Z,54.29
2019-04-29T10:09:57.209Z,54.63
2019-04-29T10:12:25.358Z,54.36
2019-04-29T10:14:56.088Z,53.49
2019-04-29T10:17:34.146Z,52.72
2019-04-29T10:20:11.312Z,53.72
2019-04-29T10:22:43.105Z,54.37
2019-04-29T10:25:15.062Z,52.45
2019-04-29T10:27:45.767Z,52.40
2019-04-29T10:30:21.192Z,53.01
2019-04-29T10:32:53.975Z,53.80
2019-04-29T10:35:24.733Z,53.43
2019-04-29T10:37:56.507Z,51.84
2019-04-29T10:40:31.019Z,51.69
2019-04-29T10:43:19.839Z,52.14
2019-04-29T10:46:20.910Z,51.47
2019-04-29T10:49:03.580Z,49.44
2019-04-29T10:51:37.674Z,48.89
2019-04-29T10:54:08.831Z,50.11
2019-04-29T10:56:41.032Z,51.53
2019-04-29T10:59:34.988Z,51.07
2019-04-29T11:02:22.527Z,50.30
2019-04-29T11:05:13.528Z,50.28
2019-04-29T11:07:45.955Z,49.34
2019-04-29T11:10:25.644Z,49.12
2019-04-29T11:12:57.072Z,48.72
2019-04-29T11:15:32.608Z,49.47
2019-04-29T11:18:04.108Z,50.16
2019-04-29T11:20:35.592Z,49.54
2019-04-29T11:23:18.203Z,50.69
2019-04-29T11:26:00.964Z,51.33
2019-04-29T11:28:33.365Z,49.48
2019-04-29T11:31:14.015Z,49.80
2019-04-29T11:33:49.386Z,48.34
2019-04-29T11:36:29.440Z,48.73
2019-04-29T11:39:00.012Z,49.07
2019-04-29T11:41:32.011Z,49.05
2019-04-29T11:44:02.734Z,49.70
2019-04-29T11:46:33.662Z,49.01
2019-04-29T11:49:05.872Z,49.33
2019-04-29T11:52:07.628Z,48.59
2019-04-29T11:54:20.766Z,48.30
2019-04-29T11:57:09.566Z,49.06
2019-04-29T11:59:44.036Z,49.09
2019-04-29T12:02:45.294Z,47.52
2019-04-29T12:05:18.016Z,47.81
2019-04-29T12:08:03.836Z,48.28
2019-04-29T12:10:32.551Z,48.84
2019-04-29T12:13:13.062Z,47.05
2019-04-29T12:15:59.115Z,46.99
2019-04-29T12:18:33.954Z,47.60
2019-04-29T12:21:05.755Z,49.03
2019-04-29T12:23:36.837Z,48.91
2019-04-29T12:26:07.760Z,48.49
2019-04-29T12:28:42.748Z,48.59
2019-04-29T12:31:28.818Z,46.88
2019-04-29T12:34:17.532Z,47.08
2019-04-29T12:36:56.260Z,47.27
2019-04-29T12:39:43.640Z,46.67
2019-04-29T12:42:15.936Z,45.78
2019-04-29T12:44:51.331Z,45.86
2019-04-29T12:47:26.550Z,46.23
2019-04-29T12:50:07.382Z,46.56
2019-04-29T12:52:38.306Z,47.13
2019-04-29T12:55:20.099Z,47.17
2019-04-29T12:57:51.484Z,48.54
2019-04-29T13:00:25.055Z,44.94
2019-04-29T13:03:30.952Z,45.23
2019-04-29T13:06:09.512Z,44.84
2019-04-29T13:08:42.798Z,44.93
2019-04-29T13:11:18.946Z,46.10
2019-04-29T13:13:51.279Z,45.96
2019-04-29T13:16:25.488Z,43.28
2019-04-29T13:19:20.355Z,44.22
2019-04-29T13:21:48.937Z,45.08
2019-04-29T13:24:24.846Z,46.44
2019-04-29T13:26:54.438Z,47.52
2019-04-29T13:29:27.808Z,48.12
2019-04-29T13:32:01.639Z,45.76
2019-04-29T13:34:33.492Z,46.11
2019-04-29T13:37:07.679Z,46.12
2019-04-29T13:39:40.681Z,44.70
2019-04-29T13:42:15.915Z,45.48
2019-04-29T13:45:05.464Z,45.39
2019-04-29T13:47:29.342Z,46.56
2019-04-29T13:50:17.820Z,46.26
2019-04-29T13:52:40.263Z,45.52
2019-04-29T13:55:29.893Z,46.38
2019-04-29T13:57:50.786Z,44.32
2019-04-29T14:00:37.749Z,44.95
2019-04-29T14:03:11.515Z,45.24
2019-04-29T14:05:43.856Z,45.50
2019-04-29T14:08:16.923Z,44.67
2019-04-29T14:10:51.107Z,45.66
2019-04-29T14:13:25.842Z,44.51
2019-04-29T14:16:00.916Z,44.78
2019-04-29T14:18:35.006Z,45.60
2019-04-29T14:21:07.090Z,45.71
2019-04-29T14:23:44.994Z,44.14
2019-04-29T14:26:17.910Z,45.77
2019-04-29T14:28:49.198Z,47.07
2019-04-29T14:31:22.797Z,46.21
2019-04-29T14:34:01.498Z,46.83
2019-04-29T14:36:40.577Z,46.39
2019-04-29T14:39:13.033Z,46.09
2019-04-29T14:41:50.975Z,45.49
2019-04-29T14:44:30.486Z,45.29
2019-04-29T14:47:08.510Z,44.80
2019-04-29T14:49:42.754Z,43.88
2019-04-29T14:52:15.043Z,44.55
2019-04-29T14:54:48.917Z,45.13
2019-04-29T14:57:20.840Z,43.79
2019-04-29T14:59:55.116Z,44.20
2019-04-29T15:02:28.149Z,44.72
2019-04-29T15:05:00.407Z,45.10
2019-04-29T15:07:35.261Z,44.32
2019-04-29T15:10:09.943Z,45.25
2019-04-29T15:13:19.641Z,45.86
2019-04-29T15:16:04.246Z,46.00
2019-04-29T15:18:48.846Z,45.09
2019-04-29T15:21:32.556Z,44.82
2019-04-29T15:24:00.294Z,45.56
2019-04-29T15:26:34.189Z,46.22
2019-04-29T15:29:05.130Z,47.01
2019-04-29T15:31:36.350Z,44.57
2019-04-29T15:34:09.004Z,43.97
2019-04-29T15:36:42.178Z,43.57
2019-04-29T15:39:13.557Z,44.58
2019-04-29T15:41:45.602Z,44.72
2019-04-29T15:44:20.487Z,45.39
2019-04-29T15:46:52.785Z,43.95
2019-04-29T15:49:26.530Z,44.57
2019-04-29T15:51:58.313Z,45.61
2019-04-29T15:54:29.747Z,46.38
2019-04-29T15:57:03.581Z,46.48
2019-04-29T15:59:47.992Z,46.84
2019-04-29T16:02:08.225Z,47.60
2019-04-29T16:04:51.540Z,47.23
2019-04-29T16:07:40.786Z,47.63
2019-04-29T16:10:20.593Z,47.68
2019-04-29T16:13:00.282Z,47.44
2019-04-29T16:15:34.359Z,47.21
2019-04-29T16:18:14.863Z,46.62
2019-04-29T16:20:44.348Z,46.69
2019-04-29T16:23:15.021Z,47.17
2019-04-29T16:25:52.424Z,47.95
2019-04-29T16:28:24.261Z,47.95
2019-04-29T16:30:54.716Z,48.80
2019-04-29T16:33:25.565Z,48.67
2019-04-29T16:38:29.022Z,48.56
2019-04-29T16:41:06.248Z,50.18
2019-04-29T16:43:46.541Z,51.00
2019-04-29T16:46:23.539Z,51.88
2019-04-29T16:48:55.379Z,51.53
2019-04-29T16:51:28.079Z,51.54
2019-04-29T16:54:00.777Z,51.54
2019-04-29T16:56:31.414Z,52.36
2019-04-29T16:59:09.115Z,52.31
2019-04-29T17:01:36.760Z,51.66
2019-04-29T17:04:07.649Z,52.05
2019-04-29T17:07:09.130Z,52.18
2019-04-29T17:09:31.836Z,51.79
2019-04-29T17:12:02.860Z,52.56
2019-04-29T17:15:01.197Z,52.89
2019-04-29T17:17:09.251Z,53.36
2019-04-29T17:19:42.991Z,53.78
2019-04-29T17:22:27.421Z,54.23
2019-04-29T17:24:54.820Z,54.34
2019-04-29T17:27:29.052Z,54.04
2019-04-29T17:30:17.567Z,54.49
2019-04-29T17:33:06.916Z,54.55
2019-04-29T17:35:14.230Z,48.55
2019-04-29T17:35:42.964Z,54.62
2019-04-29T17:38:11.209Z,54.44
2019-04-29T17:40:50.689Z,54.84
2019-04-29T17:43:19.002Z,55.27
2019-04-29T17:46:00.547Z,55.20
2019-04-29T17:48:35.914Z,55.32
2019-04-29T17:51:08.584Z,55.23
2019-04-29T17:53:47.027Z,55.42
2019-04-29T17:56:31.392Z,56.26
2019-04-29T17:59:22.831Z,56.64
2019-04-29T18:02:21.526Z,57.04
2019-04-29T18:04:49.657Z,57.07
2019-04-29T18:07:25.979Z,57.28
2019-04-29T18:10:17.652Z,57.78
2019-04-29T18:12:49.604Z,57.66
2019-04-29T18:15:22.186Z,57.86
2019-04-29T18:17:53.155Z,57.85
2019-04-29T18:20:32.841Z,58.21
2019-04-29T18:23:19.270Z,58.06
2019-04-29T18:25:59.500Z,58.74
2019-04-29T18:28:31.772Z,58.38
2019-04-29T18:31:05.903Z,58.65
2019-04-29T18:33:36.755Z,59.08
2019-04-29T18:36:19.071Z,60.20
2019-04-29T18:38:47.515Z,59.72
2019-04-29T18:41:26.757Z,59.98
2019-04-29T18:43:57.817Z,60.17
2019-04-29T18:46:28.087Z,60.29
2019-04-29T18:49:06.576Z,60.43
2019-04-29T18:51:37.608Z,61.06
2019-04-29T18:54:09.040Z,61.46
2019-04-29T18:56:40.604Z,61.47
2019-04-29T18:59:15.983Z,61.42
2019-04-29T19:01:47.179Z,62.24
2019-04-29T19:04:19.496Z,61.85
2019-04-29T19:07:02.093Z,62.23
2019-04-29T19:09:40.869Z,62.52
2019-04-29T19:12:12.861Z,62.34
2019-04-29T19:14:47.740Z,62.77
2019-04-29T19:17:21.823Z,63.12
2019-04-29T19:19:54.993Z,63.53
2019-04-29T19:22:27.789Z,63.83
2019-04-29T19:24:59.059Z,64.39
2019-04-29T19:27:30.586Z,65.26
2019-04-29T19:30:02.181Z,65.79
2019-04-29T19:32:32.947Z,65.61
2019-04-29T19:35:04.333Z,66.68
2019-04-29T19:37:37.573Z,66.13
2019-04-29T19:40:08.402Z,66.78
2019-04-29T19:42:39.706Z,67.30
2019-04-29T19:45:14.596Z,66.42
2019-04-29T19:47:53.186Z,66.15
2019-04-29T19:50:28.220Z,66.28
2019-04-29T19:53:00.759Z,66.73
2019-04-29T19:55:42.179Z,66.16
2019-04-29T19:58:12.699Z,67.07
2019-04-29T20:00:49.612Z,66.32
2019-04-29T20:03:26.561Z,66.32
2019-04-29T20:06:08.555Z,66.10
2019-04-29T20:08:53.143Z,66.28
2019-04-29T20:11:17.344Z,66.05
2019-04-29T20:14:03.817Z,66.60
2019-04-29T20:16:39.763Z,67.08
2019-04-29T20:19:21.103Z,66.57
2019-04-29T20:22:05.609Z,66.76
2019-04-29T20:24:36.127Z,67.40
2019-04-29T20:27:09.078Z,66.41
2019-04-29T20:29:40.553Z,66.63
2019-04-29T20:32:11.345Z,65.29
2019-04-29T20:34:47.584Z,65.21
2019-04-29T20:37:19.884Z,65.67
2019-04-29T20:39:59.330Z,66.30
2019-04-29T20:42:28.466Z,65.73
2019-04-29T20:45:01.206Z,65.53
2019-04-29T20:47:40.454Z,64.91
2019-04-29T20:50:08.860Z,65.13
2019-04-29T20:52:43.271Z,64.24
2019-04-29T20:55:15.810Z,64.48
2019-04-29T20:57:52.398Z,64.36
2019-04-29T21:00:25.052Z,65.14
2019-04-29T21:02:55.290Z,64.74
2019-04-29T21:05:27.744Z,64.62
2019-04-29T21:08:03.448Z,64.09
2019-04-29T21:10:32.203Z,63.93
2019-04-29T21:13:18.826Z,64.23
2019-04-29T21:16:01.211Z,63.81
2019-04-29T21:18:32.470Z,63.81
2019-04-29T21:21:04.515Z,63.97
2019-04-29T21:23:36.897Z,64.69
2019-04-29T21:26:09.786Z,64.81
2019-04-29T21:28:41.802Z,65.23
2019-04-29T21:31:18.600Z,65.03
2019-04-29T21:33:50.782Z,65.56
2019-04-29T21:36:30.667Z,65.20
2019-04-29T21:39:07.176Z,65.14
2019-04-29T21:41:45.875Z,65.21
2019-04-29T21:44:17.070Z,65.06
2019-04-29T21:46:47.725Z,64.92
2019-04-29T21:49:18.322Z,65.25
2019-04-29T21:51:49.964Z,65.44
2019-04-29T21:54:20.730Z,65.26
2019-04-29T21:56:51.941Z,65.58
2019-04-29T21:59:23.197Z,65.77
2019-04-29T22:01:56.179Z,66.26
2019-04-29T22:04:27.486Z,66.68
2019-04-29T22:06:59.915Z,66.21
2019-04-29T22:09:36.154Z,66.11
2019-04-29T22:12:05.553Z,66.63
2019-04-29T22:14:36.288Z,67.07
2019-04-29T22:17:11.419Z,67.18
2019-04-29T22:19:42.331Z,67.38
2019-04-29T22:22:13.189Z,67.15
2019-04-29T22:24:45.769Z,66.65
2019-04-29T22:27:16.365Z,66.64
2019-04-29T22:29:47.519Z,67.49
2019-04-29T22:32:19.194Z,67.20
2019-04-29T22:34:54.420Z,67.74
2019-04-29T22:37:25.487Z,67.13
2019-04-29T22:39:58.612Z,66.90
2019-04-29T22:42:48.881Z,66.97
2019-04-29T22:45:20.226Z,67.43
2019-04-29T22:47:54.411Z,67.51
2019-04-29T22:50:24.119Z,68.21
2019-04-29T22:52:57.095Z,68.46
2019-04-29T22:55:30.876Z,68.39
2019-04-29T22:58:00.841Z,68.23
2019-04-29T23:00:33.830Z,69.17
2019-04-29T23:03:04.852Z,68.99
2019-04-29T23:05:37.930Z,69.23
2019-04-29T23:08:08.103Z,68.99
2019-04-29T23:11:04.141Z,69.48
2019-04-29T23:13:33.204Z,69.35
2019-04-29T23:16:04.100Z,69.19
2019-04-29T23:18:42.189Z,69.80
2019-04-29T23:21:16.262Z,69.24
2019-04-29T23:24:13.022Z,69.57
2019-04-29T23:26:42.437Z,69.83
2019-04-29T23:29:12.979Z,70.00
2019-04-29T23:31:45.281Z,70.15
2019-04-29T23:34:16.147Z,69.79
2019-04-29T23:36:48.914Z,69.87
2019-04-29T23:39:19.562Z,69.63
2019-04-29T23:41:55.222Z,70.45
2019-04-29T23:44:26.328Z,70.11
2019-04-29T23:47:05.273Z,70.82
2019-04-29T23:49:35.373Z,70.98
2019-04-29T23:52:21.642Z,70.79
2019-04-29T23:54:52.620Z,70.69
2019-04-29T23:57:27.265Z,70.90
